sensor_id;sensor_type;location;lat;lon;timestamp;P1;durP1;ratioP1;P2;durP2;ratioP2
68050;SDS011;54839;51.364;7.246;2023-08-21T00:01:39;3.50;;;3.20;;
68050;SDS011;54839;51.364;7.246;2023-08-21T00:04:05;6.47;;;3.80;;
68050;SDS011;54839;51.364;7.246;2023-08-21T00:06:31;3.47;;;2.93;;
68050;SDS011;54839;51.364;7.246;2023-08-21T00:08:57;4.87;;;3.00;;
68050;SDS011;54839;51.364;7.246;2023-08-21T00:11:23;5.40;;;3.73;;
68050;SDS011;54839;51.364;7.246;2023-08-21T00:13:48;4.00;;;3.57;;
68050;SDS011;54839;51.364;7.246;2023-08-21T00:16:14;9.60;;;3.73;;
68050;SDS011;54839;51.364;7.246;2023-08-21T00:18:41;4.50;;;3.60;;
68050;SDS011;54839;51.364;7.246;2023-08-21T00:21:07;6.03;;;3.27;;
68050;SDS011;54839;51.364;7.246;2023-08-21T00:23:32;5.00;;;3.77;;
68050;SDS011;54839;51.364;7.246;2023-08-21T00:25:58;6.93;;;2.90;;
68050;SDS011;54839;51.364;7.246;2023-08-21T00:28:23;4.23;;;2.43;;
68050;SDS011;54839;51.364;7.246;2023-08-21T00:30:49;9.50;;;3.10;;
68050;SDS011;54839;51.364;7.246;2023-08-21T00:33:15;3.37;;;3.07;;
68050;SDS011;54839;51.364;7.246;2023-08-21T00:35:41;4.47;;;3.60;;
68050;SDS011;54839;51.364;7.246;2023-08-21T00:38:07;5.47;;;3.43;;
68050;SDS011;54839;51.364;7.246;2023-08-21T00:40:33;3.70;;;3.03;;
68050;SDS011;54839;51.364;7.246;2023-08-21T00:42:58;5.57;;;3.17;;
68050;SDS011;54839;51.364;7.246;2023-08-21T00:45:26;8.37;;;4.10;;
68050;SDS011;54839;51.364;7.246;2023-08-21T00:47:52;6.47;;;3.20;;
68050;SDS011;54839;51.364;7.246;2023-08-21T00:50:17;8.47;;;3.90;;
68050;SDS011;54839;51.364;7.246;2023-08-21T00:52:44;7.10;;;4.07;;
68050;SDS011;54839;51.364;7.246;2023-08-21T00:55:11;5.00;;;3.20;;
68050;SDS011;54839;51.364;7.246;2023-08-21T00:57:38;8.80;;;3.53;;
68050;SDS011;54839;51.364;7.246;2023-08-21T01:00:04;5.13;;;3.37;;
68050;SDS011;54839;51.364;7.246;2023-08-21T01:02:31;8.03;;;3.70;;
68050;SDS011;54839;51.364;7.246;2023-08-21T01:04:56;8.07;;;4.60;;
68050;SDS011;54839;51.364;7.246;2023-08-21T01:07:22;4.33;;;2.50;;
68050;SDS011;54839;51.364;7.246;2023-08-21T01:09:54;7.00;;;3.13;;
68050;SDS011;54839;51.364;7.246;2023-08-21T01:15:13;5.30;;;3.53;;
68050;SDS011;54839;51.364;7.246;2023-08-21T01:17:39;6.00;;;3.43;;
68050;SDS011;54839;51.364;7.246;2023-08-21T01:20:08;5.30;;;3.90;;
68050;SDS011;54839;51.364;7.246;2023-08-21T01:22:35;9.07;;;4.10;;
68050;SDS011;54839;51.364;7.246;2023-08-21T01:25:03;4.67;;;4.10;;
68050;SDS011;54839;51.364;7.246;2023-08-21T01:27:30;4.60;;;3.13;;
68050;SDS011;54839;51.364;7.246;2023-08-21T01:29:56;5.40;;;3.80;;
68050;SDS011;54839;51.364;7.246;2023-08-21T01:35:12;5.83;;;3.50;;
68050;SDS011;54839;51.364;7.246;2023-08-21T01:37:38;6.57;;;3.80;;
68050;SDS011;54839;51.364;7.246;2023-08-21T01:40:04;10.70;;;3.97;;
68050;SDS011;54839;51.364;7.246;2023-08-21T01:42:31;5.50;;;3.80;;
68050;SDS011;54839;51.364;7.246;2023-08-21T01:44:56;6.10;;;3.60;;
68050;SDS011;54839;51.364;7.246;2023-08-21T01:47:22;6.63;;;3.33;;
68050;SDS011;54839;51.364;7.246;2023-08-21T01:49:47;5.63;;;4.37;;
68050;SDS011;54839;51.364;7.246;2023-08-21T01:52:13;7.33;;;4.20;;
68050;SDS011;54839;51.364;7.246;2023-08-21T01:54:38;4.20;;;3.20;;
68050;SDS011;54839;51.364;7.246;2023-08-21T01:57:04;4.40;;;3.00;;
68050;SDS011;54839;51.364;7.246;2023-08-21T01:59:30;3.47;;;3.00;;
68050;SDS011;54839;51.364;7.246;2023-08-21T02:01:55;4.53;;;4.00;;
68050;SDS011;54839;51.364;7.246;2023-08-21T02:04:21;9.93;;;3.77;;
68050;SDS011;54839;51.364;7.246;2023-08-21T02:06:46;4.50;;;4.03;;
68050;SDS011;54839;51.364;7.246;2023-08-21T02:09:12;5.43;;;3.90;;
68050;SDS011;54839;51.364;7.246;2023-08-21T02:11:38;4.00;;;3.27;;
68050;SDS011;54839;51.364;7.246;2023-08-21T02:14:03;6.77;;;4.50;;
68050;SDS011;54839;51.364;7.246;2023-08-21T02:16:29;6.50;;;4.40;;
68050;SDS011;54839;51.364;7.246;2023-08-21T02:18:55;9.07;;;3.90;;
68050;SDS011;54839;51.364;7.246;2023-08-21T02:21:21;6.03;;;3.73;;
68050;SDS011;54839;51.364;7.246;2023-08-21T02:23:47;7.77;;;3.53;;
68050;SDS011;54839;51.364;7.246;2023-08-21T02:26:12;6.73;;;3.70;;
68050;SDS011;54839;51.364;7.246;2023-08-21T02:28:41;8.30;;;4.07;;
68050;SDS011;54839;51.364;7.246;2023-08-21T02:31:11;3.97;;;3.60;;
68050;SDS011;54839;51.364;7.246;2023-08-21T02:33:37;5.30;;;4.33;;
68050;SDS011;54839;51.364;7.246;2023-08-21T02:36:02;8.53;;;3.80;;
68050;SDS011;54839;51.364;7.246;2023-08-21T02:38:28;4.30;;;3.90;;
68050;SDS011;54839;51.364;7.246;2023-08-21T02:40:54;6.17;;;3.47;;
68050;SDS011;54839;51.364;7.246;2023-08-21T02:43:20;9.13;;;3.27;;
68050;SDS011;54839;51.364;7.246;2023-08-21T02:45:45;4.27;;;3.20;;
68050;SDS011;54839;51.364;7.246;2023-08-21T02:48:11;8.70;;;4.80;;
68050;SDS011;54839;51.364;7.246;2023-08-21T02:50:36;5.30;;;3.50;;
68050;SDS011;54839;51.364;7.246;2023-08-21T02:53:02;5.63;;;3.07;;
68050;SDS011;54839;51.364;7.246;2023-08-21T02:55:28;4.87;;;4.07;;
68050;SDS011;54839;51.364;7.246;2023-08-21T02:57:53;6.10;;;3.80;;
68050;SDS011;54839;51.364;7.246;2023-08-21T03:00:19;7.50;;;3.67;;
68050;SDS011;54839;51.364;7.246;2023-08-21T03:02:45;5.87;;;3.93;;
68050;SDS011;54839;51.364;7.246;2023-08-21T03:05:10;5.83;;;4.13;;
68050;SDS011;54839;51.364;7.246;2023-08-21T03:07:36;4.73;;;3.10;;
68050;SDS011;54839;51.364;7.246;2023-08-21T03:10:01;6.87;;;3.33;;
68050;SDS011;54839;51.364;7.246;2023-08-21T03:12:27;4.93;;;3.17;;
68050;SDS011;54839;51.364;7.246;2023-08-21T03:14:53;7.40;;;3.40;;
68050;SDS011;54839;51.364;7.246;2023-08-21T03:17:18;4.90;;;3.90;;
68050;SDS011;54839;51.364;7.246;2023-08-21T03:19:44;6.83;;;3.90;;
68050;SDS011;54839;51.364;7.246;2023-08-21T03:22:10;9.00;;;4.40;;
68050;SDS011;54839;51.364;7.246;2023-08-21T03:24:35;4.80;;;3.20;;
68050;SDS011;54839;51.364;7.246;2023-08-21T03:27:01;5.20;;;4.47;;
68050;SDS011;54839;51.364;7.246;2023-08-21T03:29:27;6.07;;;4.37;;
68050;SDS011;54839;51.364;7.246;2023-08-21T03:31:53;6.20;;;3.87;;
68050;SDS011;54839;51.364;7.246;2023-08-21T03:34:22;13.37;;;4.03;;
68050;SDS011;54839;51.364;7.246;2023-08-21T03:36:48;4.57;;;4.00;;
68050;SDS011;54839;51.364;7.246;2023-08-21T03:39:13;7.17;;;3.60;;
68050;SDS011;54839;51.364;7.246;2023-08-21T03:41:39;4.90;;;3.90;;
68050;SDS011;54839;51.364;7.246;2023-08-21T03:44:05;5.37;;;3.77;;
68050;SDS011;54839;51.364;7.246;2023-08-21T03:46:31;5.03;;;3.90;;
68050;SDS011;54839;51.364;7.246;2023-08-21T03:48:56;4.60;;;4.00;;
68050;SDS011;54839;51.364;7.246;2023-08-21T03:51:22;7.40;;;4.27;;
68050;SDS011;54839;51.364;7.246;2023-08-21T03:53:48;8.37;;;4.60;;
68050;SDS011;54839;51.364;7.246;2023-08-21T03:56:14;6.87;;;3.00;;
68050;SDS011;54839;51.364;7.246;2023-08-21T03:58:40;7.70;;;4.00;;
68050;SDS011;54839;51.364;7.246;2023-08-21T04:01:05;3.90;;;3.23;;
68050;SDS011;54839;51.364;7.246;2023-08-21T04:03:31;3.83;;;3.03;;
68050;SDS011;54839;51.364;7.246;2023-08-21T04:05:57;4.30;;;3.33;;
68050;SDS011;54839;51.364;7.246;2023-08-21T04:08:24;7.67;;;4.10;;
68050;SDS011;54839;51.364;7.246;2023-08-21T04:10:49;7.70;;;4.63;;
68050;SDS011;54839;51.364;7.246;2023-08-21T04:13:17;4.60;;;3.80;;
68050;SDS011;54839;51.364;7.246;2023-08-21T04:15:47;6.07;;;4.17;;
68050;SDS011;54839;51.364;7.246;2023-08-21T04:18:14;6.90;;;5.00;;
68050;SDS011;54839;51.364;7.246;2023-08-21T04:20:39;5.87;;;4.00;;
68050;SDS011;54839;51.364;7.246;2023-08-21T04:23:05;7.10;;;4.40;;
68050;SDS011;54839;51.364;7.246;2023-08-21T04:25:30;8.30;;;4.60;;
68050;SDS011;54839;51.364;7.246;2023-08-21T04:27:56;8.40;;;5.10;;
68050;SDS011;54839;51.364;7.246;2023-08-21T04:30:22;8.57;;;4.53;;
68050;SDS011;54839;51.364;7.246;2023-08-21T04:32:47;3.57;;;3.27;;
68050;SDS011;54839;51.364;7.246;2023-08-21T04:35:13;6.40;;;4.30;;
68050;SDS011;54839;51.364;7.246;2023-08-21T04:37:43;3.40;;;3.10;;
68050;SDS011;54839;51.364;7.246;2023-08-21T04:40:11;13.83;;;5.60;;
68050;SDS011;54839;51.364;7.246;2023-08-21T04:42:37;7.07;;;4.60;;
68050;SDS011;54839;51.364;7.246;2023-08-21T04:45:03;6.80;;;5.00;;
68050;SDS011;54839;51.364;7.246;2023-08-21T04:47:30;4.57;;;4.20;;
68050;SDS011;54839;51.364;7.246;2023-08-21T04:49:56;10.20;;;4.33;;
68050;SDS011;54839;51.364;7.246;2023-08-21T04:52:22;7.17;;;4.70;;
68050;SDS011;54839;51.364;7.246;2023-08-21T04:54:48;8.10;;;5.13;;
68050;SDS011;54839;51.364;7.246;2023-08-21T04:57:14;6.07;;;4.90;;
68050;SDS011;54839;51.364;7.246;2023-08-21T04:59:40;10.73;;;5.30;;
68050;SDS011;54839;51.364;7.246;2023-08-21T05:02:06;6.33;;;4.57;;
68050;SDS011;54839;51.364;7.246;2023-08-21T05:04:32;6.97;;;4.83;;
68050;SDS011;54839;51.364;7.246;2023-08-21T05:06:59;7.33;;;4.60;;
68050;SDS011;54839;51.364;7.246;2023-08-21T05:09:25;7.60;;;5.03;;
68050;SDS011;54839;51.364;7.246;2023-08-21T05:11:50;10.10;;;5.77;;
68050;SDS011;54839;51.364;7.246;2023-08-21T05:14:16;4.77;;;4.30;;
68050;SDS011;54839;51.364;7.246;2023-08-21T05:16:44;5.20;;;4.80;;
68050;SDS011;54839;51.364;7.246;2023-08-21T05:19:11;7.13;;;4.87;;
68050;SDS011;54839;51.364;7.246;2023-08-21T05:21:36;7.87;;;5.60;;
68050;SDS011;54839;51.364;7.246;2023-08-21T05:24:02;7.60;;;5.27;;
68050;SDS011;54839;51.364;7.246;2023-08-21T05:26:28;5.83;;;5.43;;
68050;SDS011;54839;51.364;7.246;2023-08-21T05:28:53;5.80;;;4.40;;
68050;SDS011;54839;51.364;7.246;2023-08-21T05:31:19;8.00;;;4.90;;
68050;SDS011;54839;51.364;7.246;2023-08-21T05:33:44;13.20;;;6.27;;
68050;SDS011;54839;51.364;7.246;2023-08-21T05:36:10;9.90;;;4.67;;
68050;SDS011;54839;51.364;7.246;2023-08-21T05:38:36;6.97;;;5.10;;
68050;SDS011;54839;51.364;7.246;2023-08-21T05:41:01;5.53;;;5.03;;
68050;SDS011;54839;51.364;7.246;2023-08-21T05:43:27;10.57;;;5.60;;
68050;SDS011;54839;51.364;7.246;2023-08-21T05:45:54;11.83;;;5.53;;
68050;SDS011;54839;51.364;7.246;2023-08-21T05:48:20;6.83;;;5.50;;
68050;SDS011;54839;51.364;7.246;2023-08-21T05:50:50;5.90;;;5.30;;
68050;SDS011;54839;51.364;7.246;2023-08-21T05:53:18;7.20;;;4.63;;
68050;SDS011;54839;51.364;7.246;2023-08-21T05:55:44;6.50;;;5.20;;
68050;SDS011;54839;51.364;7.246;2023-08-21T05:58:10;6.73;;;4.30;;
68050;SDS011;54839;51.364;7.246;2023-08-21T06:00:37;8.70;;;6.27;;
68050;SDS011;54839;51.364;7.246;2023-08-21T06:03:04;8.33;;;4.80;;
68050;SDS011;54839;51.364;7.246;2023-08-21T06:05:30;7.20;;;5.00;;
68050;SDS011;54839;51.364;7.246;2023-08-21T06:07:55;8.70;;;6.63;;
68050;SDS011;54839;51.364;7.246;2023-08-21T06:10:21;12.73;;;6.50;;
68050;SDS011;54839;51.364;7.246;2023-08-21T06:12:47;7.13;;;5.10;;
68050;SDS011;54839;51.364;7.246;2023-08-21T06:15:13;7.37;;;4.90;;
68050;SDS011;54839;51.364;7.246;2023-08-21T06:17:39;7.20;;;4.67;;
68050;SDS011;54839;51.364;7.246;2023-08-21T06:20:05;8.93;;;4.70;;
68050;SDS011;54839;51.364;7.246;2023-08-21T06:22:33;5.83;;;4.50;;
68050;SDS011;54839;51.364;7.246;2023-08-21T06:24:59;8.00;;;4.70;;
68050;SDS011;54839;51.364;7.246;2023-08-21T06:27:25;7.40;;;5.20;;
68050;SDS011;54839;51.364;7.246;2023-08-21T06:29:50;8.23;;;5.10;;
68050;SDS011;54839;51.364;7.246;2023-08-21T06:32:16;7.90;;;4.37;;
68050;SDS011;54839;51.364;7.246;2023-08-21T06:34:42;8.27;;;5.07;;
68050;SDS011;54839;51.364;7.246;2023-08-21T06:37:07;11.63;;;4.53;;
68050;SDS011;54839;51.364;7.246;2023-08-21T06:39:34;8.50;;;4.70;;
68050;SDS011;54839;51.364;7.246;2023-08-21T06:41:59;8.17;;;4.27;;
68050;SDS011;54839;51.364;7.246;2023-08-21T06:44:25;11.40;;;4.90;;
68050;SDS011;54839;51.364;7.246;2023-08-21T06:46:51;9.00;;;4.90;;
68050;SDS011;54839;51.364;7.246;2023-08-21T06:49:17;6.47;;;4.60;;
68050;SDS011;54839;51.364;7.246;2023-08-21T06:51:43;9.07;;;4.10;;
68050;SDS011;54839;51.364;7.246;2023-08-21T06:54:09;8.17;;;4.10;;
68050;SDS011;54839;51.364;7.246;2023-08-21T06:56:34;6.40;;;4.57;;
68050;SDS011;54839;51.364;7.246;2023-08-21T06:59:00;6.80;;;4.23;;
68050;SDS011;54839;51.364;7.246;2023-08-21T07:01:27;6.53;;;4.63;;
68050;SDS011;54839;51.364;7.246;2023-08-21T07:03:53;11.50;;;4.80;;
68050;SDS011;54839;51.364;7.246;2023-08-21T07:06:19;10.33;;;4.77;;
68050;SDS011;54839;51.364;7.246;2023-08-21T07:08:45;4.93;;;4.23;;
68050;SDS011;54839;51.364;7.246;2023-08-21T07:11:10;5.20;;;3.83;;
68050;SDS011;54839;51.364;7.246;2023-08-21T07:13:37;13.43;;;6.80;;
68050;SDS011;54839;51.364;7.246;2023-08-21T07:16:03;7.13;;;5.80;;
68050;SDS011;54839;51.364;7.246;2023-08-21T07:18:31;10.80;;;5.20;;
68050;SDS011;54839;51.364;7.246;2023-08-21T07:20:58;10.10;;;4.27;;
68050;SDS011;54839;51.364;7.246;2023-08-21T07:23:24;6.87;;;4.20;;
68050;SDS011;54839;51.364;7.246;2023-08-21T07:25:50;11.13;;;5.03;;
68050;SDS011;54839;51.364;7.246;2023-08-21T07:28:16;8.60;;;4.80;;
68050;SDS011;54839;51.364;7.246;2023-08-21T07:30:42;8.80;;;5.73;;
68050;SDS011;54839;51.364;7.246;2023-08-21T07:33:07;7.30;;;5.10;;
68050;SDS011;54839;51.364;7.246;2023-08-21T07:35:33;10.87;;;5.60;;
68050;SDS011;54839;51.364;7.246;2023-08-21T07:37:59;5.60;;;4.63;;
68050;SDS011;54839;51.364;7.246;2023-08-21T07:40:25;8.57;;;6.20;;
68050;SDS011;54839;51.364;7.246;2023-08-21T07:42:50;6.40;;;5.60;;
68050;SDS011;54839;51.364;7.246;2023-08-21T07:45:16;5.37;;;4.83;;
68050;SDS011;54839;51.364;7.246;2023-08-21T07:47:42;5.53;;;4.20;;
68050;SDS011;54839;51.364;7.246;2023-08-21T07:50:08;6.60;;;4.30;;
68050;SDS011;54839;51.364;7.246;2023-08-21T07:52:34;7.60;;;6.37;;
68050;SDS011;54839;51.364;7.246;2023-08-21T07:55:00;9.33;;;6.10;;
68050;SDS011;54839;51.364;7.246;2023-08-21T07:57:29;12.27;;;5.90;;
68050;SDS011;54839;51.364;7.246;2023-08-21T07:59:55;12.10;;;6.13;;
68050;SDS011;54839;51.364;7.246;2023-08-21T08:02:21;7.53;;;5.27;;
68050;SDS011;54839;51.364;7.246;2023-08-21T08:04:48;8.93;;;4.97;;
68050;SDS011;54839;51.364;7.246;2023-08-21T08:07:13;7.67;;;4.70;;
68050;SDS011;54839;51.364;7.246;2023-08-21T08:09:40;10.73;;;4.90;;
68050;SDS011;54839;51.364;7.246;2023-08-21T08:12:06;6.50;;;4.87;;
68050;SDS011;54839;51.364;7.246;2023-08-21T08:14:32;9.70;;;4.80;;
68050;SDS011;54839;51.364;7.246;2023-08-21T08:16:58;8.53;;;6.23;;
68050;SDS011;54839;51.364;7.246;2023-08-21T08:19:23;9.57;;;5.13;;
68050;SDS011;54839;51.364;7.246;2023-08-21T08:21:49;9.50;;;8.57;;
68050;SDS011;54839;51.364;7.246;2023-08-21T08:24:15;6.20;;;5.30;;
68050;SDS011;54839;51.364;7.246;2023-08-21T08:26:40;8.73;;;5.90;;
68050;SDS011;54839;51.364;7.246;2023-08-21T08:29:08;6.97;;;5.67;;
68050;SDS011;54839;51.364;7.246;2023-08-21T08:31:33;9.30;;;6.10;;
68050;SDS011;54839;51.364;7.246;2023-08-21T08:33:59;8.00;;;5.77;;
68050;SDS011;54839;51.364;7.246;2023-08-21T08:36:25;13.30;;;6.20;;
68050;SDS011;54839;51.364;7.246;2023-08-21T08:38:50;6.83;;;6.13;;
68050;SDS011;54839;51.364;7.246;2023-08-21T08:43:53;8.47;;;5.90;;
68050;SDS011;54839;51.364;7.246;2023-08-21T08:46:22;7.17;;;5.00;;
68050;SDS011;54839;51.364;7.246;2023-08-21T08:48:49;7.73;;;5.57;;
68050;SDS011;54839;51.364;7.246;2023-08-21T08:51:16;7.73;;;5.33;;
68050;SDS011;54839;51.364;7.246;2023-08-21T08:53:43;6.97;;;5.47;;
68050;SDS011;54839;51.364;7.246;2023-08-21T08:56:09;6.80;;;5.00;;
68050;SDS011;54839;51.364;7.246;2023-08-21T08:58:35;8.33;;;5.37;;
68050;SDS011;54839;51.364;7.246;2023-08-21T09:01:01;13.50;;;6.57;;
68050;SDS011;54839;51.364;7.246;2023-08-21T09:03:27;8.17;;;4.67;;
68050;SDS011;54839;51.364;7.246;2023-08-21T09:05:54;6.30;;;5.30;;
68050;SDS011;54839;51.364;7.246;2023-08-21T09:08:20;6.13;;;5.07;;
68050;SDS011;54839;51.364;7.246;2023-08-21T09:10:46;7.10;;;5.10;;
68050;SDS011;54839;51.364;7.246;2023-08-21T09:13:15;7.13;;;5.07;;
68050;SDS011;54839;51.364;7.246;2023-08-21T09:15:43;8.10;;;5.20;;
68050;SDS011;54839;51.364;7.246;2023-08-21T09:18:11;9.03;;;5.27;;
68050;SDS011;54839;51.364;7.246;2023-08-21T09:20:38;8.97;;;5.70;;
68050;SDS011;54839;51.364;7.246;2023-08-21T09:23:04;11.33;;;6.40;;
68050;SDS011;54839;51.364;7.246;2023-08-21T09:25:39;8.90;;;5.00;;
68050;SDS011;54839;51.364;7.246;2023-08-21T09:28:06;9.50;;;4.80;;
68050;SDS011;54839;51.364;7.246;2023-08-21T09:33:17;6.80;;;5.67;;
68050;SDS011;54839;51.364;7.246;2023-08-21T09:35:46;8.77;;;6.17;;
68050;SDS011;54839;51.364;7.246;2023-08-21T09:38:12;7.00;;;6.10;;
68050;SDS011;54839;51.364;7.246;2023-08-21T09:40:42;7.23;;;6.47;;
68050;SDS011;54839;51.364;7.246;2023-08-21T09:43:16;11.50;;;5.63;;
68050;SDS011;54839;51.364;7.246;2023-08-21T09:45:42;6.17;;;5.03;;
68050;SDS011;54839;51.364;7.246;2023-08-21T09:48:12;8.30;;;5.00;;
68050;SDS011;54839;51.364;7.246;2023-08-21T09:50:38;7.40;;;4.77;;
68050;SDS011;54839;51.364;7.246;2023-08-21T09:53:08;9.77;;;6.00;;
68050;SDS011;54839;51.364;7.246;2023-08-21T09:55:34;9.43;;;5.40;;
68050;SDS011;54839;51.364;7.246;2023-08-21T09:58:01;8.70;;;5.13;;
68050;SDS011;54839;51.364;7.246;2023-08-21T10:00:31;7.30;;;5.07;;
68050;SDS011;54839;51.364;7.246;2023-08-21T10:03:01;7.00;;;5.00;;
68050;SDS011;54839;51.364;7.246;2023-08-21T10:05:36;8.90;;;4.20;;
68050;SDS011;54839;51.364;7.246;2023-08-21T10:08:03;5.93;;;4.33;;
68050;SDS011;54839;51.364;7.246;2023-08-21T10:10:31;5.83;;;4.30;;
68050;SDS011;54839;51.364;7.246;2023-08-21T10:12:59;7.53;;;4.80;;
68050;SDS011;54839;51.364;7.246;2023-08-21T10:15:27;4.77;;;4.20;;
68050;SDS011;54839;51.364;7.246;2023-08-21T10:17:53;5.40;;;3.97;;
68050;SDS011;54839;51.364;7.246;2023-08-21T10:20:22;9.37;;;5.27;;
68050;SDS011;54839;51.364;7.246;2023-08-21T10:22:52;8.27;;;4.90;;
68050;SDS011;54839;51.364;7.246;2023-08-21T10:25:24;9.17;;;4.33;;
68050;SDS011;54839;51.364;7.246;2023-08-21T10:27:54;5.93;;;4.23;;
68050;SDS011;54839;51.364;7.246;2023-08-21T10:30:24;7.97;;;4.07;;
68050;SDS011;54839;51.364;7.246;2023-08-21T10:32:52;8.07;;;5.60;;
68050;SDS011;54839;51.364;7.246;2023-08-21T10:35:20;9.43;;;5.50;;
68050;SDS011;54839;51.364;7.246;2023-08-21T10:40:40;6.80;;;6.17;;
68050;SDS011;54839;51.364;7.246;2023-08-21T10:46:08;6.53;;;4.07;;
68050;SDS011;54839;51.364;7.246;2023-08-21T10:48:34;11.87;;;5.77;;
68050;SDS011;54839;51.364;7.246;2023-08-21T10:51:01;7.83;;;4.87;;
68050;SDS011;54839;51.364;7.246;2023-08-21T10:53:28;9.00;;;6.67;;
68050;SDS011;54839;51.364;7.246;2023-08-21T10:55:55;7.50;;;6.03;;
68050;SDS011;54839;51.364;7.246;2023-08-21T10:58:22;6.93;;;5.20;;
68050;SDS011;54839;51.364;7.246;2023-08-21T11:00:55;8.00;;;5.67;;
68050;SDS011;54839;51.364;7.246;2023-08-21T11:03:22;8.27;;;6.40;;
68050;SDS011;54839;51.364;7.246;2023-08-21T11:06:04;8.10;;;6.40;;
68050;SDS011;54839;51.364;7.246;2023-08-21T11:08:32;7.90;;;5.97;;
68050;SDS011;54839;51.364;7.246;2023-08-21T11:10:58;10.33;;;6.47;;
68050;SDS011;54839;51.364;7.246;2023-08-21T11:13:25;8.77;;;6.10;;
68050;SDS011;54839;51.364;7.246;2023-08-21T11:15:57;9.83;;;7.70;;
68050;SDS011;54839;51.364;7.246;2023-08-21T11:18:29;8.13;;;6.60;;
68050;SDS011;54839;51.364;7.246;2023-08-21T11:21:07;8.57;;;5.90;;
68050;SDS011;54839;51.364;7.246;2023-08-21T11:23:35;6.50;;;5.90;;
68050;SDS011;54839;51.364;7.246;2023-08-21T11:26:02;8.90;;;5.60;;
68050;SDS011;54839;51.364;7.246;2023-08-21T11:28:29;7.43;;;6.70;;
68050;SDS011;54839;51.364;7.246;2023-08-21T11:30:55;10.87;;;7.43;;
68050;SDS011;54839;51.364;7.246;2023-08-21T11:33:21;8.83;;;7.93;;
68050;SDS011;54839;51.364;7.246;2023-08-21T11:35:47;11.13;;;7.90;;
68050;SDS011;54839;51.364;7.246;2023-08-21T11:38:17;8.73;;;7.20;;
68050;SDS011;54839;51.364;7.246;2023-08-21T11:43:36;9.03;;;7.80;;
68050;SDS011;54839;51.364;7.246;2023-08-21T11:46:03;12.17;;;8.17;;
68050;SDS011;54839;51.364;7.246;2023-08-21T11:48:32;7.83;;;6.23;;
68050;SDS011;54839;51.364;7.246;2023-08-21T11:51:00;11.83;;;5.90;;
68050;SDS011;54839;51.364;7.246;2023-08-21T11:53:33;11.00;;;8.20;;
68050;SDS011;54839;51.364;7.246;2023-08-21T11:56:02;10.40;;;6.27;;
68050;SDS011;54839;51.364;7.246;2023-08-21T11:58:33;10.40;;;6.40;;
68050;SDS011;54839;51.364;7.246;2023-08-21T12:01:03;17.03;;;7.70;;
68050;SDS011;54839;51.364;7.246;2023-08-21T12:03:29;11.00;;;6.70;;
68050;SDS011;54839;51.364;7.246;2023-08-21T12:05:56;13.63;;;7.50;;
68050;SDS011;54839;51.364;7.246;2023-08-21T12:08:22;7.57;;;6.90;;
68050;SDS011;54839;51.364;7.246;2023-08-21T12:10:50;7.63;;;6.83;;
68050;SDS011;54839;51.364;7.246;2023-08-21T12:13:17;10.10;;;7.80;;
68050;SDS011;54839;51.364;7.246;2023-08-21T12:15:43;14.57;;;10.43;;
68050;SDS011;54839;51.364;7.246;2023-08-21T12:18:09;10.90;;;6.73;;
68050;SDS011;54839;51.364;7.246;2023-08-21T12:20:37;7.50;;;6.47;;
68050;SDS011;54839;51.364;7.246;2023-08-21T12:23:03;8.50;;;7.30;;
68050;SDS011;54839;51.364;7.246;2023-08-21T12:25:29;8.53;;;7.03;;
68050;SDS011;54839;51.364;7.246;2023-08-21T12:27:56;12.27;;;7.50;;
68050;SDS011;54839;51.364;7.246;2023-08-21T12:30:22;9.70;;;6.20;;
68050;SDS011;54839;51.364;7.246;2023-08-21T12:32:48;5.20;;;4.80;;
68050;SDS011;54839;51.364;7.246;2023-08-21T12:35:13;9.23;;;5.13;;
68050;SDS011;54839;51.364;7.246;2023-08-21T12:37:39;9.67;;;8.63;;
68050;SDS011;54839;51.364;7.246;2023-08-21T12:40:05;11.20;;;6.37;;
68050;SDS011;54839;51.364;7.246;2023-08-21T12:42:31;7.03;;;5.80;;
68050;SDS011;54839;51.364;7.246;2023-08-21T12:44:57;10.33;;;8.37;;
68050;SDS011;54839;51.364;7.246;2023-08-21T12:47:22;6.27;;;5.53;;
68050;SDS011;54839;51.364;7.246;2023-08-21T12:49:48;6.47;;;5.83;;
68050;SDS011;54839;51.364;7.246;2023-08-21T12:52:14;5.60;;;5.10;;
68050;SDS011;54839;51.364;7.246;2023-08-21T12:54:39;7.70;;;6.73;;
68050;SDS011;54839;51.364;7.246;2023-08-21T12:57:05;6.53;;;4.63;;
68050;SDS011;54839;51.364;7.246;2023-08-21T12:59:31;10.80;;;6.93;;
68050;SDS011;54839;51.364;7.246;2023-08-21T13:01:59;6.30;;;5.70;;
68050;SDS011;54839;51.364;7.246;2023-08-21T13:04:28;6.17;;;4.60;;
68050;SDS011;54839;51.364;7.246;2023-08-21T13:06:54;5.60;;;4.33;;
68050;SDS011;54839;51.364;7.246;2023-08-21T13:09:20;6.10;;;3.40;;
68050;SDS011;54839;51.364;7.246;2023-08-21T13:11:45;6.90;;;4.50;;
68050;SDS011;54839;51.364;7.246;2023-08-21T13:14:11;5.27;;;4.87;;
68050;SDS011;54839;51.364;7.246;2023-08-21T13:16:36;4.73;;;3.97;;
68050;SDS011;54839;51.364;7.246;2023-08-21T13:19:02;6.87;;;4.03;;
68050;SDS011;54839;51.364;7.246;2023-08-21T13:21:28;4.17;;;3.60;;
68050;SDS011;54839;51.364;7.246;2023-08-21T13:23:53;7.07;;;4.17;;
68050;SDS011;54839;51.364;7.246;2023-08-21T13:26:19;8.90;;;4.90;;
68050;SDS011;54839;51.364;7.246;2023-08-21T13:28:44;4.53;;;3.47;;
68050;SDS011;54839;51.364;7.246;2023-08-21T13:31:10;6.93;;;3.87;;
68050;SDS011;54839;51.364;7.246;2023-08-21T13:33:46;11.10;;;4.40;;
68050;SDS011;54839;51.364;7.246;2023-08-21T13:36:12;6.80;;;3.97;;
68050;SDS011;54839;51.364;7.246;2023-08-21T13:38:37;14.33;;;4.30;;
68050;SDS011;54839;51.364;7.246;2023-08-21T13:41:03;9.03;;;3.90;;
68050;SDS011;54839;51.364;7.246;2023-08-21T13:43:29;6.57;;;3.57;;
68050;SDS011;54839;51.364;7.246;2023-08-21T13:45:54;7.10;;;3.00;;
68050;SDS011;54839;51.364;7.246;2023-08-21T13:48:20;5.60;;;2.60;;
68050;SDS011;54839;51.364;7.246;2023-08-21T13:50:46;5.13;;;2.20;;
68050;SDS011;54839;51.364;7.246;2023-08-21T13:53:11;5.33;;;2.90;;
68050;SDS011;54839;51.364;7.246;2023-08-21T13:55:37;8.77;;;4.00;;
68050;SDS011;54839;51.364;7.246;2023-08-21T13:58:03;10.87;;;4.10;;
68050;SDS011;54839;51.364;7.246;2023-08-21T14:00:28;7.33;;;4.30;;
68050;SDS011;54839;51.364;7.246;2023-08-21T14:02:54;5.83;;;2.80;;
68050;SDS011;54839;51.364;7.246;2023-08-21T14:05:20;5.03;;;3.40;;
68050;SDS011;54839;51.364;7.246;2023-08-21T14:07:46;6.70;;;3.50;;
68050;SDS011;54839;51.364;7.246;2023-08-21T14:10:11;4.13;;;3.33;;
68050;SDS011;54839;51.364;7.246;2023-08-21T14:12:39;4.30;;;2.47;;
68050;SDS011;54839;51.364;7.246;2023-08-21T14:15:05;3.83;;;2.60;;
68050;SDS011;54839;51.364;7.246;2023-08-21T14:17:31;4.07;;;2.70;;
68050;SDS011;54839;51.364;7.246;2023-08-21T14:19:57;7.10;;;3.37;;
68050;SDS011;54839;51.364;7.246;2023-08-21T14:22:22;6.00;;;3.83;;
68050;SDS011;54839;51.364;7.246;2023-08-21T14:24:48;4.07;;;2.90;;
68050;SDS011;54839;51.364;7.246;2023-08-21T14:27:15;5.90;;;3.60;;
68050;SDS011;54839;51.364;7.246;2023-08-21T14:29:42;4.80;;;2.87;;
68050;SDS011;54839;51.364;7.246;2023-08-21T14:32:09;4.23;;;2.73;;
68050;SDS011;54839;51.364;7.246;2023-08-21T14:34:34;8.90;;;3.43;;
68050;SDS011;54839;51.364;7.246;2023-08-21T14:37:00;5.07;;;3.23;;
68050;SDS011;54839;51.364;7.246;2023-08-21T14:39:26;4.53;;;3.03;;
68050;SDS011;54839;51.364;7.246;2023-08-21T14:41:54;7.00;;;3.40;;
68050;SDS011;54839;51.364;7.246;2023-08-21T14:44:21;3.60;;;3.20;;
68050;SDS011;54839;51.364;7.246;2023-08-21T14:46:46;8.20;;;3.60;;
68050;SDS011;54839;51.364;7.246;2023-08-21T14:49:12;5.20;;;3.10;;
68050;SDS011;54839;51.364;7.246;2023-08-21T14:51:38;7.03;;;3.63;;
68050;SDS011;54839;51.364;7.246;2023-08-21T14:54:04;2.63;;;2.37;;
68050;SDS011;54839;51.364;7.246;2023-08-21T14:56:31;5.80;;;3.90;;
68050;SDS011;54839;51.364;7.246;2023-08-21T14:58:58;5.70;;;3.77;;
68050;SDS011;54839;51.364;7.246;2023-08-21T15:01:24;5.70;;;3.53;;